Maryland Line, Maryland
Current Conditions -  °F | °C
As of 4:53 AM on Thursday 18 Dec 2014 (Local Time) from KTHV Reporting Station
Overcast Overcast  
Wind Chill: 25°   Ceiling: 4100
Heat Index: 34°   Visibility: 10mi
Dew Point: 21°   Wind: 12mph
Humidity: 59%   Direction: 310°NW
Pressure: 30.06"   Gusts: NA
Location:  39.71°N, 76.65°W
Report Text: KTHV 180953Z AUTO 31010KT 10SM OVC041 01/M06 A3006 RMK AO2 SLP184 T00111061
Loading
Personal Weather Stations






























Interactive Weather Map New forecast layout! Learn more

10-Day Weather Forecast

Advertisements
Track Severe Weather on mobile